Rainbow Star; — VREU4 — position and weather

sailwx.info

Track history (hours):
 
Tides and Currents Weather Stations Pressure Air Temp Water Temp Dewpoint Dewpoint Depression Visibility Wind Speed Wind Dir Waves Ship Positions

Rainbow Star;

Last reported at 2017-Dec-14 07:21 UTC. Time now 2017-Dec-18 01:29 UTC.
Position N 01°17' E 104°00'.

Length 182 m; draft 7.6 m.

Type: Tanker. MMSI: 477185200.

Date/timePositionNaut miles runAvg speedWind from/ knotsBaromVisibWave heightAir tempDewpointWater temp
2017-Dec-14 07:21N 01°17' E 104°00'0 0.1
2017-Dec-14 06:06N 01°17' E 104°00'0 0.1
2017-Dec-14 06:00N 01°17' E 104°00'0 0.0
2017-Dec-14 05:27N 01°17' E 104°00'0 0.0
2017-Dec-14 04:57N 01°17' E 104°00'0 0.1
2017-Dec-14 03:18N 01°17' E 104°00'0 0.0
2017-Dec-14 02:42N 01°17' E 104°00'0 0.0
2017-Dec-13 22:30N 01°17' E 103°60'0 0.0
2017-Dec-13 07:24N 01°17' E 103°60'0 0.3
2017-Dec-13 06:57N 01°17' E 104°00'0 0.1
2017-Dec-13 05:45N 01°17' E 104°00'0 0.0
2017-Dec-13 03:57N 01°17' E 104°00'0 0.0
2017-Dec-13 02:39N 01°17' E 104°00'0 0.0
2017-Dec-13 02:15N 01°17' E 104°00'0 0.2
2017-Dec-13 01:51N 01°17' E 103°60'0 0.1
2017-Dec-13 01:30N 01°17' E 103°60'2 3.8
2017-Dec-13 01:00N 01°16' E 103°59'2 3.8
2017-Dec-13 00:31N 01°16' E 104°01'4 7.3
2017-Dec-12 23:59N 01°17' E 104°04'4 8.3
2017-Dec-12 23:30N 01°17' E 104°08'5 8.7
2017-Dec-12 22:58N 01°18' E 104°13'9 9.1
2017-Dec-12 21:56N 01°21' E 104°22'  
Track history (hours):
 
Tides and Currents Weather Stations Pressure Air Temp Water Temp Dewpoint Dewpoint Depression Visibility Wind Speed Wind Dir Waves Ship Positions

Rainbow Star;

Last reported at 2017-Dec-14 07:21 UTC. Time now 2017-Dec-18 01:29 UTC.
Position N 01°17' E 104°00'.

Length 182 m; draft 7.6 m.

Type: Tanker. MMSI: 477185200.

Date/timePositionNaut miles runAvg speedWind from/ knotsBaromVisibWave heightAir tempDewpointWater temp
2017-Dec-14 07:21N 01°17' E 104°00'0 0.1
2017-Dec-14 06:06N 01°17' E 104°00'0 0.1
2017-Dec-14 06:00N 01°17' E 104°00'0 0.0
2017-Dec-14 05:27N 01°17' E 104°00'0 0.0
2017-Dec-14 04:57N 01°17' E 104°00'0 0.1
2017-Dec-14 03:18N 01°17' E 104°00'0 0.0
2017-Dec-14 02:42N 01°17' E 104°00'0 0.0
2017-Dec-13 22:30N 01°17' E 103°60'0 0.0
2017-Dec-13 07:24N 01°17' E 103°60'0 0.3
2017-Dec-13 06:57N 01°17' E 104°00'0 0.1
2017-Dec-13 05:45N 01°17' E 104°00'0 0.0
2017-Dec-13 03:57N 01°17' E 104°00'0 0.0
2017-Dec-13 02:39N 01°17' E 104°00'0 0.0
2017-Dec-13 02:15N 01°17' E 104°00'0 0.2
2017-Dec-13 01:51N 01°17' E 103°60'0 0.1
2017-Dec-13 01:30N 01°17' E 103°60'2 3.8
2017-Dec-13 01:00N 01°16' E 103°59'2 3.8
2017-Dec-13 00:31N 01°16' E 104°01'4 7.3
2017-Dec-12 23:59N 01°17' E 104°04'4 8.3
2017-Dec-12 23:30N 01°17' E 104°08'5 8.7
2017-Dec-12 22:58N 01°18' E 104°13'9 9.1
2017-Dec-12 21:56N 01°21' E 104°22'  

Dump ship's entire track history